createdAt,value
2023-05-01T00:00:27.092Z,567.00
2023-05-01T00:01:26.965Z,514.30
2023-05-01T00:02:27.168Z,544.40
2023-05-01T00:03:27.104Z,499.70
2023-05-01T00:04:26.951Z,544.20
2023-05-01T00:05:27.000Z,533.20
2023-05-01T00:06:26.974Z,503.10
2023-05-01T00:07:26.930Z,488.80
2023-05-01T00:08:26.909Z,459.50
2023-05-01T00:09:26.873Z,547.80
2023-05-01T00:10:26.813Z,587.90
2023-05-01T00:11:26.878Z,500.20
2023-05-01T00:12:26.804Z,458.00
2023-05-01T00:13:26.788Z,515.20
2023-05-01T00:14:26.842Z,517.60
2023-05-01T00:15:26.813Z,499.70
2023-05-01T00:16:26.847Z,516.30
2023-05-01T00:17:26.852Z,476.30
2023-05-01T00:18:26.764Z,549.50
2023-05-01T00:19:26.838Z,467.30
2023-05-01T00:20:27.207Z,525.10
2023-05-01T00:21:26.883Z,502.60
2023-05-01T00:22:26.825Z,463.90
2023-05-01T00:23:26.913Z,488.20
2023-05-01T00:24:26.848Z,516.90
2023-05-01T00:25:26.878Z,472.80
2023-05-01T00:26:26.843Z,505.80
2023-05-01T00:27:26.767Z,575.90
2023-05-01T00:28:26.788Z,589.40
2023-05-01T00:29:26.760Z,565.60
2023-05-01T00:30:26.793Z,491.20
2023-05-01T00:31:26.817Z,458.80
2023-05-01T00:32:26.816Z,473.40
2023-05-01T00:33:26.810Z,452.70
2023-05-01T00:34:26.710Z,557.80
2023-05-01T00:35:27.631Z,580.30
2023-05-01T00:36:26.747Z,589.00
2023-05-01T00:37:26.676Z,554.70
2023-05-01T00:38:26.615Z,573.80
2023-05-01T00:39:26.652Z,465.30
2023-05-01T00:40:26.582Z,447.20
2023-05-01T00:41:26.608Z,535.60
2023-05-01T00:42:26.679Z,514.90
2023-05-01T00:43:26.703Z,581.30
2023-05-01T00:44:26.755Z,484.60
2023-05-01T00:45:26.717Z,451.50
2023-05-01T00:46:26.839Z,522.80
2023-05-01T00:47:26.751Z,494.90
2023-05-01T00:48:26.773Z,497.60
2023-05-01T00:49:26.616Z,422.10
2023-05-01T00:50:26.712Z,439.60
2023-05-01T00:51:26.654Z,506.10
2023-05-01T00:52:26.593Z,453.70
2023-05-01T00:53:26.679Z,432.50
2023-05-01T00:54:26.611Z,552.60
2023-05-01T00:55:26.600Z,566.30
2023-05-01T00:56:26.601Z,624.00
2023-05-01T00:57:26.526Z,551.70
2023-05-01T00:58:26.582Z,622.10
2023-05-01T00:59:27.136Z,582.00
2023-05-01T01:00:26.483Z,578.00
2023-05-01T01:01:26.554Z,551.10
2023-05-01T01:02:26.606Z,511.60
2023-05-01T01:03:26.545Z,547.40
2023-05-01T01:04:26.620Z,542.60
2023-05-01T01:05:26.591Z,553.50
2023-05-01T01:06:27.598Z,568.70
2023-05-01T01:07:26.617Z,555.40
2023-05-01T01:08:26.491Z,569.60
2023-05-01T01:09:26.590Z,536.10
2023-05-01T01:10:26.460Z,573.90
2023-05-01T01:11:26.421Z,559.60
2023-05-01T01:12:26.421Z,602.00
2023-05-01T01:13:26.458Z,580.70
2023-05-01T01:14:26.477Z,555.90
2023-05-01T01:15:26.403Z,583.90
2023-05-01T01:16:26.386Z,579.10
2023-05-01T01:17:26.363Z,532.80
2023-05-01T01:18:26.349Z,562.00
2023-05-01T01:19:26.343Z,557.00
2023-05-01T01:20:26.855Z,562.20
2023-05-01T01:21:26.399Z,552.40
2023-05-01T01:22:26.396Z,548.80
2023-05-01T01:23:26.425Z,541.80
2023-05-01T01:24:26.369Z,510.30
2023-05-01T01:25:26.428Z,467.70
2023-05-01T01:26:26.472Z,493.50
2023-05-01T01:27:26.372Z,503.80
2023-05-01T01:28:26.386Z,478.50
2023-05-01T01:29:26.369Z,474.80
2023-05-01T01:30:26.442Z,475.60
2023-05-01T01:31:26.441Z,521.10
2023-05-01T01:32:26.444Z,402.50
2023-05-01T01:33:26.426Z,463.80
2023-05-01T01:34:26.222Z,465.90
2023-05-01T01:35:26.270Z,545.90
2023-05-01T01:36:26.223Z,515.10
2023-05-01T01:37:26.320Z,454.30
2023-05-01T01:38:26.192Z,482.50
2023-05-01T01:39:26.216Z,453.80
2023-05-01T01:40:26.210Z,422.60
2023-05-01T01:41:26.241Z,405.30
2023-05-01T01:42:26.385Z,431.80
2023-05-01T01:43:26.256Z,433.10
2023-05-01T01:44:26.243Z,376.50
2023-05-01T01:45:26.263Z,381.20
2023-05-01T01:46:26.284Z,433.80
2023-05-01T01:47:26.254Z,427.30
2023-05-01T01:48:26.286Z,424.50
2023-05-01T01:49:26.265Z,438.80
2023-05-01T01:50:27.230Z,468.30
2023-05-01T01:51:26.249Z,488.30
2023-05-01T01:52:26.170Z,494.90
2023-05-01T01:53:26.181Z,460.10
2023-05-01T01:54:26.083Z,427.70
2023-05-01T01:55:26.109Z,349.80
2023-05-01T01:56:26.165Z,368.40
2023-05-01T01:57:26.067Z,394.80
2023-05-01T01:58:26.146Z,475.20
2023-05-01T01:59:26.120Z,480.70
2023-05-01T02:00:26.153Z,450.00
2023-05-01T02:01:26.083Z,471.20
2023-05-01T02:02:26.215Z,468.30
2023-05-01T02:03:26.238Z,405.60
2023-05-01T02:04:26.182Z,464.60
2023-05-01T02:05:26.113Z,431.20
2023-05-01T02:06:26.178Z,381.40
2023-05-01T02:07:26.092Z,350.10
2023-05-01T02:08:26.170Z,335.50
2023-05-01T02:09:26.098Z,341.30
2023-05-01T02:10:26.148Z,355.10
2023-05-01T02:11:26.023Z,361.40
2023-05-01T02:12:26.074Z,335.30
2023-05-01T02:13:26.041Z,316.20
2023-05-01T02:14:26.069Z,364.10
2023-05-01T02:15:26.112Z,339.40
2023-05-01T02:16:26.079Z,350.80
2023-05-01T02:17:26.062Z,359.10
2023-05-01T02:18:26.085Z,359.90
2023-05-01T02:19:26.047Z,341.70
2023-05-01T02:20:26.065Z,376.60
2023-05-01T02:21:26.213Z,382.10
2023-05-01T02:22:25.874Z,342.10
2023-05-01T02:23:25.933Z,373.90
2023-05-01T02:24:25.936Z,551.50
2023-05-01T02:25:26.605Z,497.10
2023-05-01T02:26:25.926Z,479.80
2023-05-01T02:27:25.925Z,458.80
2023-05-01T02:28:25.869Z,450.60
2023-05-01T02:29:25.820Z,426.20
2023-05-01T02:30:25.947Z,437.10
2023-05-01T02:31:25.987Z,431.00
2023-05-01T02:32:25.912Z,413.00
2023-05-01T02:33:25.934Z,371.20
2023-05-01T02:34:25.933Z,379.80
2023-05-01T02:35:25.880Z,333.90
2023-05-01T02:36:25.914Z,329.90
2023-05-01T02:37:25.937Z,367.90
2023-05-01T02:38:25.917Z,374.60
2023-05-01T02:39:25.893Z,368.90
2023-05-01T02:40:25.871Z,349.10
2023-05-01T02:41:26.861Z,331.60
2023-05-01T02:42:25.806Z,358.00
2023-05-01T02:43:25.820Z,357.50
2023-05-01T02:44:25.739Z,340.00
2023-05-01T02:45:25.821Z,338.50
2023-05-01T02:46:25.972Z,331.00
2023-05-01T02:47:25.839Z,356.50
2023-05-01T02:48:25.776Z,342.20
2023-05-01T02:49:25.713Z,368.40
2023-05-01T02:50:25.742Z,379.40
2023-05-01T02:51:25.753Z,377.90
2023-05-01T02:52:26.799Z,407.60
2023-05-01T02:53:25.777Z,400.00
2023-05-01T02:54:25.825Z,403.90
2023-05-01T02:55:25.783Z,386.90
2023-05-01T02:56:25.759Z,414.80
2023-05-01T02:57:25.817Z,411.90
2023-05-01T02:58:25.834Z,418.80
2023-05-01T02:59:25.746Z,407.60
2023-05-01T03:00:25.739Z,437.00
2023-05-01T03:01:25.731Z,469.30
2023-05-01T03:02:25.771Z,462.10
2023-05-01T03:03:25.752Z,463.60
2023-05-01T03:04:25.897Z,425.10
2023-05-01T03:05:25.724Z,416.90
2023-05-01T03:06:25.666Z,406.30
2023-05-01T03:07:25.605Z,380.50
2023-05-01T03:08:25.603Z,443.20
2023-05-01T03:09:25.688Z,398.10
2023-05-01T03:10:25.684Z,415.30
2023-05-01T03:11:25.586Z,401.40
2023-05-01T03:12:25.554Z,347.00
2023-05-01T03:13:25.777Z,356.50
2023-05-01T03:14:25.630Z,377.90
2023-05-01T03:15:25.734Z,374.00
2023-05-01T03:16:26.653Z,362.10
2023-05-01T03:17:25.798Z,353.70
2023-05-01T03:18:25.617Z,332.30
2023-05-01T03:19:25.679Z,400.40
2023-05-01T03:20:25.929Z,407.20
2023-05-01T03:21:25.567Z,353.40
2023-05-01T03:22:25.607Z,378.40
2023-05-01T03:23:25.554Z,349.80
2023-05-01T03:24:25.461Z,355.40
2023-05-01T03:25:25.517Z,491.50
2023-05-01T03:26:25.752Z,816.60
2023-05-01T03:27:25.476Z,822.40
2023-05-01T03:28:25.628Z,830.00
2023-05-01T03:29:25.436Z,811.80
2023-05-01T03:30:25.450Z,779.10
2023-05-01T03:31:25.753Z,800.50
2023-05-01T03:32:25.867Z,805.00
2023-05-01T03:33:25.543Z,768.70
2023-05-01T03:34:25.541Z,643.40
2023-05-01T03:35:25.600Z,615.10
2023-05-01T03:36:25.506Z,615.70
2023-05-01T03:37:25.565Z,640.40
2023-05-01T03:38:25.481Z,675.80
2023-05-01T03:39:25.467Z,641.90
2023-05-01T03:40:25.405Z,567.50
2023-05-01T03:41:25.440Z,520.40
2023-05-01T03:42:25.460Z,466.20
2023-05-01T03:43:25.418Z,453.00
2023-05-01T03:44:25.484Z,448.40
2023-05-01T03:45:25.347Z,443.40
2023-05-01T03:46:25.348Z,485.90
2023-05-01T03:47:25.334Z,436.20
2023-05-01T03:48:25.467Z,379.90
2023-05-01T03:49:25.348Z,374.30
2023-05-01T03:50:25.288Z,386.10
2023-05-01T03:51:25.283Z,392.90
2023-05-01T03:52:25.252Z,390.60
2023-05-01T03:53:25.340Z,377.90
2023-05-01T03:54:25.328Z,396.20
2023-05-01T03:55:25.349Z,354.20
2023-05-01T03:56:25.318Z,359.70
2023-05-01T03:57:25.331Z,341.10
2023-05-01T03:58:25.405Z,359.10
2023-05-01T03:59:25.311Z,362.10
2023-05-01T04:00:25.299Z,374.40
2023-05-01T04:01:25.307Z,418.70
2023-05-01T04:02:25.404Z,407.20
2023-05-01T04:03:25.480Z,400.10
2023-05-01T04:04:25.391Z,413.80
2023-05-01T04:05:25.318Z,475.80
2023-05-01T04:06:25.360Z,475.20
2023-05-01T04:07:25.351Z,527.80
2023-05-01T04:08:25.211Z,503.20
2023-05-01T04:09:25.254Z,495.00
2023-05-01T04:10:25.209Z,506.60
2023-05-01T04:11:25.176Z,405.50
2023-05-01T04:12:25.217Z,470.00
2023-05-01T04:13:25.144Z,445.40
2023-05-01T04:14:25.112Z,431.70
2023-05-01T04:15:25.183Z,422.60
2023-05-01T04:16:25.215Z,418.50
2023-05-01T04:17:25.102Z,454.60
2023-05-01T04:18:25.110Z,446.50
2023-05-01T04:19:25.170Z,487.90
2023-05-01T04:20:25.217Z,513.00
2023-05-01T04:21:25.156Z,760.90
2023-05-01T04:22:25.163Z,768.80
2023-05-01T04:23:25.180Z,640.10
2023-05-01T04:24:25.187Z,762.60
2023-05-01T04:25:25.181Z,677.40
2023-05-01T04:26:25.084Z,405.10
2023-05-01T04:27:26.151Z,432.30
2023-05-01T04:28:25.090Z,472.40
2023-05-01T04:29:25.128Z,377.10
2023-05-01T04:30:25.115Z,348.90
2023-05-01T04:31:25.559Z,386.80
2023-05-01T04:32:25.144Z,380.90
2023-05-01T04:33:25.062Z,378.40
2023-05-01T04:34:25.063Z,365.40
2023-05-01T04:35:25.100Z,381.40
2023-05-01T04:36:24.979Z,343.90
2023-05-01T04:37:25.048Z,338.60
2023-05-01T04:38:25.163Z,376.30
2023-05-01T04:39:24.953Z,295.90
2023-05-01T04:40:25.099Z,389.20
2023-05-01T04:41:25.000Z,376.10
2023-05-01T04:42:25.086Z,342.90
2023-05-01T04:43:25.065Z,354.50
2023-05-01T04:44:25.020Z,373.20
2023-05-01T04:45:25.020Z,414.40
2023-05-01T04:46:25.025Z,390.50
2023-05-01T04:47:24.995Z,480.50
2023-05-01T04:48:25.026Z,517.50
2023-05-01T04:49:24.965Z,510.60
2023-05-01T04:50:24.988Z,507.20
2023-05-01T04:51:24.984Z,434.30
2023-05-01T04:52:24.948Z,485.30
2023-05-01T04:53:24.998Z,616.50
2023-05-01T04:54:24.916Z,557.40
2023-05-01T04:55:24.955Z,588.80
2023-05-01T04:56:24.891Z,575.20
2023-05-01T04:57:24.825Z,543.70
2023-05-01T04:58:24.871Z,603.40
2023-05-01T04:59:24.850Z,602.40
2023-05-01T05:00:24.884Z,578.30
2023-05-01T05:01:24.989Z,567.70
2023-05-01T05:02:25.011Z,551.90
2023-05-01T05:03:24.993Z,531.50
2023-05-01T05:04:24.963Z,511.60
2023-05-01T05:05:24.895Z,577.90
2023-05-01T05:06:24.980Z,635.00
2023-05-01T05:07:24.877Z,524.00
2023-05-01T05:08:24.842Z,546.10
2023-05-01T05:09:24.847Z,571.70
2023-05-01T05:10:24.921Z,655.40
2023-05-01T05:11:24.840Z,672.50
2023-05-01T05:12:24.815Z,659.90
2023-05-01T05:13:24.832Z,652.70
2023-05-01T05:14:24.819Z,654.40
2023-05-01T05:15:24.744Z,503.90
2023-05-01T05:16:24.760Z,607.90
2023-05-01T05:17:24.774Z,624.60
2023-05-01T05:18:24.732Z,636.00
2023-05-01T05:19:24.743Z,670.20
2023-05-01T05:20:24.678Z,664.40
2023-05-01T05:21:24.725Z,578.80
2023-05-01T05:22:24.836Z,603.40
2023-05-01T05:23:24.800Z,669.50
2023-05-01T05:24:24.752Z,551.30
2023-05-01T05:25:24.747Z,636.50
2023-05-01T05:26:24.832Z,554.40
2023-05-01T05:27:24.797Z,567.40
2023-05-01T05:28:24.778Z,451.20
2023-05-01T05:29:24.739Z,523.10
2023-05-01T05:30:27.229Z,618.50
2023-05-01T05:31:24.669Z,555.60
2023-05-01T05:32:24.999Z,525.00
2023-05-01T05:33:24.738Z,507.00
2023-05-01T05:34:24.639Z,355.30
2023-05-01T05:35:24.558Z,437.80
2023-05-01T05:36:24.656Z,341.80
2023-05-01T05:37:24.609Z,385.30
2023-05-01T05:38:42.596Z,391.40
2023-05-01T05:39:25.569Z,353.30
2023-05-01T05:40:24.557Z,389.00
2023-05-01T05:41:24.655Z,282.10
2023-05-01T05:42:24.611Z,281.00
2023-05-01T05:43:27.358Z,240.60
2023-05-01T05:44:25.595Z,193.20
2023-05-01T05:45:24.684Z,226.20
2023-05-01T05:46:24.617Z,164.80
2023-05-01T05:47:24.626Z,121.60
2023-05-01T05:48:24.688Z,135.50
2023-05-01T05:49:24.608Z,135.60
2023-05-01T05:50:24.632Z,125.50
2023-05-01T05:51:24.508Z,131.50
2023-05-01T05:52:24.481Z,156.00
2023-05-01T05:53:26.017Z,153.10
2023-05-01T05:54:25.511Z,143.40
2023-05-01T05:55:24.452Z,129.80
2023-05-01T05:56:24.554Z,171.30
2023-05-01T05:57:24.547Z,169.40
2023-05-01T05:58:24.560Z,140.60
2023-05-01T05:59:24.561Z,116.90
2023-05-01T06:00:24.523Z,127.40
2023-05-01T06:01:24.494Z,117.50
2023-05-01T06:02:24.539Z,145.40
2023-05-01T06:03:24.597Z,139.00
2023-05-01T06:04:24.514Z,160.20
2023-05-01T06:05:24.576Z,214.70
2023-05-01T06:06:24.504Z,234.10
2023-05-01T06:07:24.455Z,187.70
2023-05-01T06:08:24.366Z,144.40
2023-05-01T06:09:24.373Z,157.70
2023-05-01T06:10:24.444Z,169.10
2023-05-01T06:11:24.354Z,167.50
2023-05-01T06:12:24.457Z,169.40
2023-05-01T06:13:24.420Z,191.70
2023-05-01T06:14:24.489Z,143.80
2023-05-01T06:15:24.385Z,134.60
2023-05-01T06:16:24.479Z,122.30
2023-05-01T06:17:24.357Z,89.50
2023-05-01T06:18:24.421Z,93.90
2023-05-01T06:19:24.412Z,97.60
2023-05-01T06:20:24.406Z,77.00
2023-05-01T06:21:24.417Z,97.50
2023-05-01T06:22:24.370Z,161.70
2023-05-01T06:23:25.405Z,133.10
2023-05-01T06:24:24.335Z,100.70
2023-05-01T06:25:24.569Z,88.20
2023-05-01T06:26:24.241Z,161.70
2023-05-01T06:27:24.282Z,148.40
2023-05-01T06:28:24.349Z,89.80
2023-05-01T06:29:24.194Z,93.40
2023-05-01T06:30:24.210Z,144.70
2023-05-01T06:31:24.266Z,132.20
2023-05-01T06:32:24.479Z,72.50
2023-05-01T06:33:24.191Z,102.10
2023-05-01T06:34:24.264Z,62.40
2023-05-01T06:35:24.311Z,92.20
2023-05-01T06:36:24.270Z,97.80
2023-05-01T06:37:31.010Z,123.30
2023-05-01T06:38:26.847Z,126.30
2023-05-01T06:39:24.246Z,158.50
2023-05-01T06:40:24.235Z,174.10
2023-05-01T06:41:24.597Z,118.30
2023-05-01T06:42:24.198Z,163.60
2023-05-01T06:43:24.232Z,238.70
2023-05-01T06:44:24.276Z,151.50
2023-05-01T06:45:24.204Z,126.60
2023-05-01T06:46:24.267Z,107.20
2023-05-01T06:47:24.178Z,158.10
2023-05-01T06:48:24.075Z,220.90
2023-05-01T06:49:24.103Z,224.70
2023-05-01T06:50:24.150Z,295.00
2023-05-01T06:51:24.164Z,241.30
2023-05-01T06:52:24.444Z,236.60
2023-05-01T06:53:24.193Z,168.00
2023-05-01T06:54:24.160Z,91.00
2023-05-01T06:55:24.116Z,184.90
2023-05-01T06:56:24.215Z,100.70
2023-05-01T06:57:24.252Z,124.90
2023-05-01T06:58:24.706Z,120.30
2023-05-01T06:59:25.242Z,113.90
2023-05-01T07:00:24.171Z,129.20
2023-05-01T07:01:24.149Z,132.40
2023-05-01T07:02:24.171Z,185.90
2023-05-01T07:03:24.109Z,349.50
2023-05-01T07:04:23.968Z,302.50
2023-05-01T07:05:24.071Z,177.50
2023-05-01T07:06:24.254Z,222.20
2023-05-01T07:07:23.968Z,201.20
2023-05-01T07:08:24.000Z,208.70
2023-05-01T07:09:24.089Z,169.50
2023-05-01T07:10:24.107Z,162.80
2023-05-01T07:11:24.157Z,110.00
2023-05-01T07:12:24.367Z,189.50
2023-05-01T07:13:23.994Z,210.60
2023-05-01T07:14:23.999Z,255.50
2023-05-01T07:15:24.030Z,277.50
2023-05-01T07:16:24.106Z,269.40
2023-05-01T07:17:24.086Z,263.30
2023-05-01T07:18:25.161Z,174.90
2023-05-01T07:19:24.033Z,218.60
2023-05-01T07:20:23.951Z,246.50
2023-05-01T07:21:24.027Z,201.40
2023-05-01T07:22:24.124Z,217.50
2023-05-01T07:23:23.902Z,304.70
2023-05-01T07:24:23.924Z,325.40
2023-05-01T07:25:24.955Z,412.70
2023-05-01T07:26:24.933Z,395.10
2023-05-01T07:27:23.792Z,415.10
2023-05-01T07:28:23.886Z,407.90
2023-05-01T07:29:23.861Z,371.50
2023-05-01T07:30:24.109Z,395.20
2023-05-01T07:31:23.947Z,410.80
2023-05-01T07:32:23.905Z,417.70
2023-05-01T07:33:23.950Z,437.10
2023-05-01T07:34:23.929Z,516.00
2023-05-01T07:35:23.891Z,431.60
2023-05-01T07:36:23.868Z,505.70
2023-05-01T07:37:24.231Z,491.40
2023-05-01T07:38:23.931Z,516.60
2023-05-01T07:39:24.977Z,478.10
2023-05-01T07:40:24.363Z,441.80
2023-05-01T07:41:24.473Z,489.90
2023-05-01T07:42:24.085Z,517.50
2023-05-01T07:43:24.447Z,435.60
2023-05-01T07:44:24.051Z,452.20
2023-05-01T07:45:23.984Z,466.00
2023-05-01T07:46:23.862Z,452.30
2023-05-01T07:47:23.847Z,541.90
2023-05-01T07:48:23.888Z,705.00
2023-05-01T07:49:24.101Z,526.40
2023-05-01T07:50:24.180Z,425.70
2023-05-01T07:51:24.014Z,406.20
2023-05-01T07:52:24.338Z,364.40
2023-05-01T07:53:23.839Z,470.30
2023-05-01T07:54:23.921Z,423.60
2023-05-01T07:55:23.713Z,499.50
2023-05-01T07:56:23.681Z,523.70
2023-05-01T07:57:23.743Z,525.50
2023-05-01T07:58:23.671Z,452.20
2023-05-01T07:59:24.022Z,518.40
2023-05-01T08:00:24.264Z,558.60
2023-05-01T08:01:24.671Z,558.80
2023-05-01T08:02:23.672Z,607.00
2023-05-01T08:03:23.825Z,567.50
2023-05-01T08:04:23.640Z,498.10
2023-05-01T08:05:24.128Z,507.20
2023-05-01T08:06:23.765Z,616.00
2023-05-01T08:07:23.548Z,546.60
2023-05-01T08:08:23.561Z,569.40
2023-05-01T08:09:23.754Z,472.60
2023-05-01T08:10:23.742Z,458.90
2023-05-01T08:11:23.726Z,489.00
2023-05-01T08:12:23.694Z,563.60
2023-05-01T08:13:24.260Z,411.90
2023-05-01T08:14:23.776Z,530.20
2023-05-01T08:15:24.177Z,384.50
2023-05-01T08:16:23.890Z,448.90
2023-05-01T08:17:23.605Z,546.10
2023-05-01T08:18:23.992Z,479.20
2023-05-01T08:19:24.030Z,532.90
2023-05-01T08:20:24.155Z,433.00
2023-05-01T08:21:23.776Z,359.00
2023-05-01T08:22:23.625Z,259.60
2023-05-01T08:23:23.587Z,296.80
2023-05-01T08:24:23.585Z,282.40
2023-05-01T08:25:23.607Z,272.10
2023-05-01T08:26:23.989Z,269.80
2023-05-01T08:27:23.382Z,278.60
2023-05-01T08:28:23.484Z,262.30
2023-05-01T08:29:23.401Z,273.60
2023-05-01T08:30:24.397Z,296.70
2023-05-01T08:31:23.514Z,295.20
2023-05-01T08:32:23.623Z,349.00
2023-05-01T08:33:23.480Z,356.90
2023-05-01T08:34:23.492Z,367.60
2023-05-01T08:35:23.575Z,366.40
2023-05-01T08:36:23.472Z,336.20
2023-05-01T08:37:24.076Z,238.20
2023-05-01T08:38:23.380Z,461.40
2023-05-01T08:39:23.833Z,387.30
2023-05-01T08:40:23.466Z,381.90
2023-05-01T08:41:24.500Z,395.10
2023-05-01T08:42:24.002Z,395.40
2023-05-01T08:43:24.150Z,376.40
2023-05-01T08:44:23.963Z,411.70
2023-05-01T08:45:23.725Z,366.20
2023-05-01T08:46:29.791Z,279.30
2023-05-01T08:47:25.891Z,274.40
2023-05-01T08:48:23.759Z,371.40
2023-05-01T08:49:23.956Z,392.20
2023-05-01T08:50:23.906Z,320.70
2023-05-01T08:51:23.438Z,336.10
2023-05-01T08:52:23.303Z,352.90
2023-05-01T08:53:23.407Z,356.70
2023-05-01T08:54:23.320Z,335.30
2023-05-01T08:55:23.330Z,342.50
2023-05-01T08:56:23.342Z,200.80
2023-05-01T08:57:23.290Z,337.30
2023-05-01T08:58:23.309Z,244.00
2023-05-01T08:59:23.431Z,183.30
2023-05-01T09:00:23.269Z,179.40
2023-05-01T09:01:23.276Z,190.90
2023-05-01T09:02:23.248Z,181.20
2023-05-01T09:03:23.189Z,145.40
2023-05-01T09:04:23.304Z,134.70
2023-05-01T09:05:23.142Z,170.90
2023-05-01T09:06:23.270Z,173.30
2023-05-01T09:07:23.171Z,141.00
2023-05-01T09:08:23.119Z,156.70
2023-05-01T09:09:23.236Z,142.90
2023-05-01T09:10:23.224Z,121.50
2023-05-01T09:11:23.080Z,141.30
2023-05-01T09:12:23.249Z,136.30
2023-05-01T09:13:23.138Z,170.20
2023-05-01T09:14:23.180Z,169.50
2023-05-01T09:15:23.182Z,149.80
2023-05-01T09:16:23.294Z,161.80
2023-05-01T09:17:55.446Z,154.70
2023-05-01T09:18:22.981Z,160.80
2023-05-01T09:19:55.142Z,153.60
2023-05-01T09:22:31.901Z,222.50
2023-05-01T09:23:33.219Z,160.70
2023-05-01T09:26:41.343Z,180.80
2023-05-01T09:28:08.706Z,146.00
2023-05-01T09:29:14.699Z,165.30
2023-05-01T09:29:42.682Z,200.70
2023-05-01T09:30:42.639Z,170.30
2023-05-01T09:31:42.721Z,161.40
2023-05-01T09:38:35.083Z,159.70
2023-05-01T09:44:58.982Z,198.30
2023-05-01T09:46:00.251Z,139.10
2023-05-01T09:49:41.505Z,129.90
2023-05-01T09:54:05.751Z,111.10
2023-05-01T09:55:06.732Z,101.20
2023-05-01T09:57:35.108Z,151.30
2023-05-01T09:59:08.318Z,142.70
2023-05-01T09:59:36.393Z,189.00
2023-05-01T10:01:09.946Z,104.10
2023-05-01T10:01:36.434Z,173.30
2023-05-01T10:02:36.418Z,102.90
2023-05-01T10:03:36.373Z,110.50
2023-05-01T10:04:36.750Z,104.80
2023-05-01T10:05:36.378Z,107.60
2023-05-01T10:14:17.584Z,133.30
2023-05-01T10:18:22.173Z,158.40
2023-05-01T10:22:26.698Z,117.30
2023-05-01T10:28:54.870Z,119.60
2023-05-01T10:31:52.295Z,92.00
2023-05-01T10:37:10.286Z,61.70
2023-05-01T10:48:35.855Z,54.70
2023-05-01T10:49:36.562Z,28.30
2023-05-01T10:50:36.649Z,20.40
2023-05-01T10:51:36.623Z,19.30
2023-05-01T10:52:36.671Z,18.90
2023-05-01T10:53:36.554Z,21.80
2023-05-01T10:57:32.713Z,25.30
2023-05-01T10:58:33.964Z,24.50
2023-05-01T11:04:01.180Z,39.30
2023-05-01T11:09:18.693Z,27.60
2023-05-01T11:17:10.839Z,26.40
2023-05-01T11:24:52.895Z,24.50
2023-05-01T11:35:16.431Z,21.10
2023-05-01T11:36:50.707Z,21.70
2023-05-01T11:37:17.596Z,17.20
2023-05-01T11:38:17.724Z,25.80
2023-05-01T11:39:17.591Z,18.20
2023-05-01T11:40:17.686Z,24.80
2023-05-01T11:44:20.568Z,20.60
2023-05-01T11:45:22.439Z,20.70
2023-05-01T11:51:36.310Z,15.80
2023-05-01T12:01:24.047Z,13.80
2023-05-01T12:02:14.319Z,14.50
2023-05-01T12:05:11.289Z,12.30
2023-05-01T12:06:12.721Z,13.90
2023-05-01T12:07:13.128Z,13.50
2023-05-01T12:08:14.164Z,13.10
2023-05-01T12:09:14.408Z,14.10
2023-05-01T12:13:35.542Z,15.90
2023-05-01T12:14:37.010Z,29.00
2023-05-01T12:15:36.945Z,23.60
2023-05-01T12:16:36.854Z,25.80
2023-05-01T12:17:37.320Z,24.70
2023-05-01T12:19:08.878Z,17.90
2023-05-01T12:19:36.681Z,13.90
2023-05-01T12:27:08.986Z,13.80
2023-05-01T12:30:47.593Z,14.70
2023-05-01T12:33:47.419Z,17.40
2023-05-01T12:47:42.482Z,10.60
2023-05-01T12:56:19.350Z,14.10
2023-05-01T12:57:20.754Z,22.90
2023-05-01T12:58:21.879Z,20.60
2023-05-01T13:06:40.710Z,10.10
2023-05-01T13:13:00.590Z,11.30
2023-05-01T13:18:04.346Z,10.10
2023-05-01T13:19:05.587Z,12.40
2023-05-01T13:21:47.072Z,8.60
2023-05-01T13:37:24.508Z,10.60
2023-05-01T14:18:38.997Z,6.00
2023-05-01T14:22:26.434Z,10.40
2023-05-01T14:26:49.230Z,12.80
2023-05-01T14:36:21.238Z,19.10
2023-05-01T14:45:27.850Z,12.60
2023-05-01T14:57:57.196Z,29.40
2023-05-01T15:06:23.473Z,28.00
2023-05-01T15:12:58.680Z,35.70
2023-05-01T15:16:28.455Z,91.00
2023-05-01T15:19:41.956Z,132.00
2023-05-01T15:20:42.739Z,96.80
2023-05-01T15:21:42.973Z,133.80
2023-05-01T15:25:19.871Z,112.90
2023-05-01T15:28:51.381Z,143.70
2023-05-01T15:40:32.525Z,59.50
2023-05-01T15:50:12.698Z,52.00
2023-05-01T15:53:52.006Z,59.40
2023-05-01T16:02:53.308Z,229.70
2023-05-01T16:21:35.689Z,77.60
2023-05-01T16:40:38.292Z,97.60
2023-05-01T16:44:50.894Z,81.90
2023-05-01T17:26:01.531Z,71.40
2023-05-01T17:32:17.996Z,222.70
2023-05-01T17:59:03.530Z,76.30
2023-05-01T18:02:47.859Z,93.50
2023-05-01T18:07:52.394Z,105.40
2023-05-01T18:08:54.129Z,251.00
2023-05-01T22:25:35.180Z,19.90
2023-05-01T22:26:34.675Z,23.60
2023-05-01T22:27:35.915Z,26.00
2023-05-01T22:30:55.039Z,55.80
2023-05-01T22:31:56.479Z,93.60
2023-05-01T22:32:56.281Z,135.50
2023-05-01T22:33:56.354Z,112.50
2023-05-01T22:34:56.247Z,143.30
2023-05-01T22:35:56.443Z,136.80
2023-05-01T22:36:56.328Z,132.70
2023-05-01T22:37:56.237Z,176.40
2023-05-01T22:38:56.125Z,138.10
2023-05-01T22:39:56.192Z,164.10
2023-05-01T22:40:56.124Z,201.40
2023-05-01T22:41:56.169Z,238.40
2023-05-01T22:42:56.106Z,301.30
2023-05-01T22:43:56.153Z,261.10
2023-05-01T22:44:56.153Z,290.30
2023-05-01T22:45:56.133Z,333.00
2023-05-01T22:46:56.217Z,315.60
2023-05-01T22:47:56.150Z,351.00
2023-05-01T22:48:56.176Z,320.10
2023-05-01T22:49:56.193Z,228.70
2023-05-01T22:50:56.128Z,240.40
2023-05-01T22:51:56.107Z,246.20
2023-05-01T22:52:56.178Z,248.10
2023-05-01T22:53:56.159Z,252.40
2023-05-01T22:54:56.158Z,274.90
2023-05-01T22:55:56.075Z,298.50
2023-05-01T22:56:57.083Z,283.30
2023-05-01T22:57:56.127Z,276.40
2023-05-01T22:58:56.159Z,292.70
2023-05-01T22:59:56.102Z,290.10
2023-05-01T23:01:00.887Z,318.50
2023-05-01T23:01:57.107Z,299.90
2023-05-01T23:02:55.997Z,275.70
2023-05-01T23:03:56.251Z,263.10
2023-05-01T23:04:56.067Z,258.50
2023-05-01T23:05:56.014Z,253.20
2023-05-01T23:06:56.019Z,179.40
2023-05-01T23:07:56.159Z,225.90
2023-05-01T23:08:56.098Z,228.20
2023-05-01T23:09:56.012Z,280.90
2023-05-01T23:10:55.976Z,243.80
2023-05-01T23:11:55.977Z,241.40
2023-05-01T23:12:56.011Z,194.40
2023-05-01T23:13:55.972Z,196.50
2023-05-01T23:14:56.073Z,202.00
2023-05-01T23:15:56.004Z,234.80
2023-05-01T23:16:55.993Z,240.00
2023-05-01T23:17:55.948Z,231.50
2023-05-01T23:18:55.870Z,252.20
2023-05-01T23:19:55.985Z,231.60
2023-05-01T23:20:55.822Z,232.80
2023-05-01T23:21:55.864Z,229.80
2023-05-01T23:25:05.032Z,332.40
2023-05-01T23:26:06.149Z,223.30
2023-05-01T23:27:06.220Z,224.80
2023-05-01T23:28:06.163Z,211.30
2023-05-01T23:29:06.292Z,231.60
2023-05-01T23:30:06.451Z,224.90
2023-05-01T23:31:06.281Z,205.00
2023-05-01T23:32:06.380Z,202.60
2023-05-01T23:33:06.308Z,209.60
2023-05-01T23:34:06.207Z,215.40
2023-05-01T23:35:06.241Z,231.60
2023-05-01T23:36:06.243Z,216.50
2023-05-01T23:37:06.206Z,197.60
2023-05-01T23:38:06.305Z,225.70
2023-05-01T23:39:06.224Z,206.20
2023-05-01T23:40:06.207Z,197.70
2023-05-01T23:41:06.230Z,229.10
2023-05-01T23:42:06.412Z,210.80
2023-05-01T23:43:06.279Z,180.60
2023-05-01T23:44:06.257Z,238.40
2023-05-01T23:45:06.133Z,197.00
2023-05-01T23:46:06.097Z,206.80
2023-05-01T23:47:06.249Z,224.80
2023-05-01T23:48:06.087Z,247.10
2023-05-01T23:49:06.083Z,278.70
2023-05-01T23:50:06.102Z,205.10
2023-05-01T23:51:05.995Z,180.30
2023-05-01T23:52:06.130Z,200.20
2023-05-01T23:53:06.085Z,225.10
2023-05-01T23:56:03.535Z,522.60
2023-05-01T23:57:04.792Z,379.90
2023-05-01T23:58:04.854Z,330.20
2023-05-01T23:59:04.710Z,304.20
